Time;durP1;ratioP1;P1;durP2;ratioP2;P2;SDS_P1;SDS_P2;PMS_P1;PMS_P2;Temp;Humidity;BMP_temperature;BMP_pressure;BME280_temperature;BME280_humidity;BME280_pressure;Samples;Min_cycle;Max_cycle;Signal;HPM_P1;HPM_P2
2021/12/27 00:00:12;;;;;;;24.80;13.77;;;-0.40;99.90;;;;;;4922246;29;20047;-82
2021/12/27 00:02:39;;;;;;;29.42;18.17;;;-0.30;99.90;;;;;;4953819;29;20087;-82
2021/12/27 00:05:05;;;;;;;25.67;16.98;;;0.10;99.90;;;;;;4905914;29;20048;-82
2021/12/27 00:07:31;;;;;;;28.05;17.25;;;-0.30;99.90;;;;;;4937776;29;20036;-82
2021/12/27 00:09:57;;;;;;;27.15;15.00;;;0.50;99.90;;;;;;4937310;29;20036;-82
2021/12/27 00:12:23;;;;;;;23.27;13.88;;;-0.40;99.90;;;;;;4905091;29;20046;-82
2021/12/27 00:14:48;;;;;;;21.13;13.57;;;0.60;99.90;;;;;;4937430;29;20126;-82
2021/12/27 00:17:14;;;;;;;25.17;13.30;;;-0.30;99.90;;;;;;4936990;29;20554;-82
2021/12/27 00:19:40;;;;;;;22.75;13.20;;;0.50;99.90;;;;;;4905512;29;20444;-82
2021/12/27 00:22:06;;;;;;;18.27;10.30;;;0.20;99.90;;;;;;4921207;29;20035;-82
2021/12/27 00:24:32;;;;;;;24.52;15.27;;;-0.30;99.90;;;;;;4905520;29;20099;-82
2021/12/27 00:26:58;;;;;;;21.65;12.18;;;-0.30;99.90;;;;;;4904750;29;20047;-82
2021/12/27 00:29:23;;;;;;;24.05;15.25;;;-0.30;99.90;;;;;;4937218;29;20094;-82
2021/12/27 00:31:49;;;;;;;26.52;16.52;;;0.00;99.90;;;;;;4952974;29;20039;-82
2021/12/27 00:34:15;;;;;;;26.95;17.20;;;-0.30;99.90;;;;;;4905490;29;20071;-82
2021/12/27 00:36:41;;;;;;;26.27;16.25;;;-0.30;99.90;;;;;;4936747;29;20426;-82
2021/12/27 00:39:07;;;;;;;28.92;17.08;;;-0.30;99.90;;;;;;4905425;29;20398;-82
2021/12/27 00:41:32;;;;;;;25.63;15.40;;;-0.20;99.90;;;;;;4904244;29;20106;-82
2021/12/27 00:43:58;;;;;;;23.42;13.65;;;-0.30;99.90;;;;;;4905264;29;20047;-82
2021/12/27 00:46:24;;;;;;;27.02;16.85;;;0.30;99.90;;;;;;4905155;29;20495;-81
2021/12/27 00:48:49;;;;;;;24.70;15.30;;;-0.30;99.90;;;;;;4905500;29;20582;-81
2021/12/27 00:51:15;;;;;;;24.45;16.27;;;0.40;99.90;;;;;;4936384;29;20071;-81
2021/12/27 00:53:42;;;;;;;22.92;14.18;;;-0.30;99.90;;;;;;4904928;29;20044;-81
2021/12/27 00:56:08;;;;;;;24.67;15.82;;;0.50;99.90;;;;;;4951521;29;20056;-81
2021/12/27 00:58:34;;;;;;;23.55;16.02;;;-0.30;99.90;;;;;;4920773;29;20050;-81
2021/12/27 01:01:00;;;;;;;24.92;14.75;;;-0.20;99.90;;;;;;4936164;29;20056;-81
2021/12/27 01:03:26;;;;;;;28.45;15.85;;;-0.30;99.90;;;;;;4936631;29;20048;-81
2021/12/27 01:05:52;;;;;;;25.70;15.93;;;0.20;99.90;;;;;;4920198;29;20049;-81
2021/12/27 01:08:17;;;;;;;24.75;15.85;;;-0.30;99.90;;;;;;4936275;29;20051;-81
2021/12/27 01:13:40;;;;;;;25.23;15.18;;;-0.20;99.90;;;;;;4938002;29;20047;-81
2021/12/27 01:18:34;;;;;;;18.83;10.10;;;0.70;99.90;;;;;;4936119;29;20054;-81
2021/12/27 01:21:00;;;;;;;15.20;8.15;;;0.20;99.90;;;;;;4904191;29;20051;-81
2021/12/27 01:23:27;;;;;;;27.65;14.43;;;-0.20;99.90;;;;;;4920540;29;20415;-81
2021/12/27 01:25:53;;;;;;;18.38;10.13;;;-0.10;99.90;;;;;;4935183;29;20047;-81
2021/12/27 01:28:19;;;;;;;26.95;16.80;;;0.20;99.90;;;;;;4935723;29;20503;-81
2021/12/27 01:30:49;;;;;;;15.00;8.80;;;-0.10;99.90;;;;;;4946005;28;20491;-81
2021/12/27 01:33:18;;;;;;;20.88;12.13;;;-0.10;99.90;;;;;;4940733;28;20512;-81
2021/12/27 01:35:44;;;;;;;23.52;13.63;;;-0.10;99.90;;;;;;4955008;29;20050;-81
2021/12/27 01:38:12;;;;;;;26.27;15.82;;;-0.10;99.90;;;;;;4939041;29;20039;-81
2021/12/27 01:40:41;;;;;;;25.88;17.15;;;-0.10;99.90;;;;;;4938278;29;20039;-81
2021/12/27 01:43:20;;;;;;;29.20;18.25;;;-0.10;99.90;;;;;;4938932;29;20043;-81
2021/12/27 01:45:49;;;;;;;26.35;17.25;;;-0.10;99.90;;;;;;4954417;29;20083;-81
2021/12/27 01:48:20;;;;;;;24.42;13.82;;;-0.10;99.90;;;;;;4954901;28;20047;-81
2021/12/27 01:50:46;;;;;;;23.83;13.95;;;-0.10;99.90;;;;;;4955075;28;20047;-81
2021/12/27 01:53:14;;;;;;;23.88;14.63;;;-0.10;99.90;;;;;;4922996;29;20041;-81
2021/12/27 01:55:40;;;;;;;24.48;15.43;;;-0.10;99.90;;;;;;4969750;28;20134;-81
2021/12/27 01:58:06;;;;;;;27.88;16.00;;;-0.10;99.90;;;;;;4955063;28;20135;-81
2021/12/27 02:00:34;;;;;;;27.27;17.00;;;-0.10;99.90;;;;;;4954541;29;20078;-81
2021/12/27 02:03:00;;;;;;;22.88;13.95;;;-0.10;99.90;;;;;;4954982;28;20403;-81
2021/12/27 02:05:25;;;;;;;23.70;14.32;;;0.10;99.90;;;;;;4954273;29;20051;-81
2021/12/27 02:07:51;;;;;;;30.02;18.73;;;-0.10;99.90;;;;;;4922861;29;20049;-81
2021/12/27 02:10:17;;;;;;;27.42;17.02;;;0.80;99.90;;;;;;4937806;28;20081;-81
2021/12/27 02:12:46;;;;;;;27.95;17.38;;;-0.10;99.90;;;;;;4938824;29;20488;-81
2021/12/27 02:15:13;;;;;;;26.02;15.68;;;-0.10;99.90;;;;;;4954480;29;20495;-82
2021/12/27 02:17:40;;;;;;;26.58;16.65;;;-0.10;99.90;;;;;;4954647;29;20130;-82
2021/12/27 02:20:16;;;;;;;30.38;18.70;;;0.40;99.90;;;;;;4954290;29;20506;-82
2021/12/27 02:22:43;;;;;;;27.88;18.58;;;-0.10;99.90;;;;;;4954258;28;20058;-82
2021/12/27 02:25:10;;;;;;;26.83;17.42;;;-0.10;99.90;;;;;;4953690;29;20171;-82
2021/12/27 02:27:36;;;;;;;28.48;16.70;;;-0.10;99.90;;;;;;4954127;29;20047;-81
2021/12/27 02:30:06;;;;;;;28.98;17.70;;;0.00;99.90;;;;;;4954301;29;20049;-81
2021/12/27 02:32:32;;;;;;;26.23;17.80;;;-0.10;99.90;;;;;;4954326;29;20043;-81
2021/12/27 02:34:57;;;;;;;23.83;14.27;;;-0.10;99.90;;;;;;4938439;28;20494;-81
2021/12/27 02:37:23;;;;;;;29.45;17.75;;;0.00;99.90;;;;;;4954323;29;20035;-81
2021/12/27 02:39:49;;;;;;;25.05;14.27;;;-0.10;99.90;;;;;;4938753;29;20074;-81
2021/12/27 02:42:19;;;;;;;29.77;19.42;;;0.00;99.90;;;;;;4953483;29;20035;-81
2021/12/27 02:44:45;;;;;;;28.52;19.02;;;0.50;99.90;;;;;;4954570;29;20049;-81
2021/12/27 02:47:14;;;;;;;24.17;13.75;;;0.00;99.90;;;;;;4937909;29;20074;-81
2021/12/27 02:49:40;;;;;;;28.50;19.00;;;0.40;99.90;;;;;;4954326;29;20051;-81
2021/12/27 02:52:06;;;;;;;30.02;18.90;;;0.40;99.90;;;;;;4970193;28;20043;-81
2021/12/27 02:54:32;;;;;;;26.27;16.60;;;0.10;99.90;;;;;;4970378;28;20059;-81
2021/12/27 02:56:58;;;;;;;28.73;18.10;;;0.10;99.90;;;;;;4969459;28;20194;-81
2021/12/27 02:59:24;;;;;;;28.15;17.02;;;0.10;99.90;;;;;;4938157;29;20047;-81
2021/12/27 03:01:49;;;;;;;28.27;17.15;;;0.10;99.90;;;;;;4938154;29;20047;-81
2021/12/27 03:04:15;;;;;;;26.98;16.02;;;0.70;99.90;;;;;;4970175;28;20044;-81
2021/12/27 03:06:41;;;;;;;29.55;16.08;;;0.10;99.90;;;;;;4953515;29;20047;-81
2021/12/27 03:09:06;;;;;;;24.35;13.93;;;0.10;99.90;;;;;;4969765;28;20047;-81
2021/12/27 03:11:32;;;;;;;28.35;16.48;;;0.10;99.90;;;;;;4953107;29;20062;-81
2021/12/27 03:13:58;;;;;;;25.58;15.80;;;0.10;99.90;;;;;;4922266;29;20042;-81
2021/12/27 03:16:24;;;;;;;30.38;18.35;;;0.60;99.90;;;;;;4954322;28;20039;-81
2021/12/27 03:18:54;;;;;;;26.05;14.55;;;0.20;99.90;;;;;;4970189;28;20415;-81
2021/12/27 03:21:20;;;;;;;26.38;16.45;;;0.30;99.90;;;;;;4953744;28;20039;-81
2021/12/27 03:23:47;;;;;;;29.40;16.10;;;0.50;99.90;;;;;;4922346;29;20042;-81
2021/12/27 03:26:14;;;;;;;27.60;17.15;;;0.20;99.90;;;;;;4953191;29;20106;-81
2021/12/27 03:28:40;;;;;;;32.08;18.92;;;0.30;99.90;;;;;;4937955;29;20117;-81
2021/12/27 03:31:09;;;;;;;30.02;17.75;;;0.80;99.90;;;;;;4953655;29;20035;-81
2021/12/27 03:33:35;;;;;;;29.83;18.80;;;0.20;99.90;;;;;;4953804;29;20071;-81
2021/12/27 03:36:03;;;;;;;30.92;19.25;;;0.20;99.90;;;;;;4955959;28;20047;-81
2021/12/27 03:38:38;;;;;;;27.60;18.10;;;0.10;99.90;;;;;;4957304;29;20047;-81
2021/12/27 03:41:08;;;;;;;26.85;16.95;;;0.10;99.90;;;;;;4956657;29;20039;-81
2021/12/27 03:43:34;;;;;;;26.20;17.95;;;0.10;99.90;;;;;;4957176;29;20130;-81
2021/12/27 03:46:00;;;;;;;28.55;17.00;;;0.70;99.90;;;;;;4954721;29;20130;-81
2021/12/27 03:48:25;;;;;;;31.65;18.95;;;0.20;99.90;;;;;;4906644;29;20452;-81
2021/12/27 03:50:52;;;;;;;31.40;20.33;;;0.20;99.90;;;;;;4905967;29;20039;-81
2021/12/27 03:53:18;;;;;;;31.55;19.80;;;0.10;99.90;;;;;;4938026;29;20559;-81
2021/12/27 03:55:44;;;;;;;30.42;19.17;;;0.20;99.90;;;;;;4905146;29;20048;-81
2021/12/27 03:58:22;;;;;;;33.35;20.65;;;0.20;99.90;;;;;;4906549;29;20091;-81
2021/12/27 04:03:20;;;;;;;;;;;0.20;99.90;;;;;;4954312;29;20094;-81
2021/12/27 04:05:46;;;;;;;31.67;19.83;;;0.20;99.90;;;;;;4921858;29;20367;-81
2021/12/27 04:08:14;;;;;;;30.90;19.10;;;0.50;99.90;;;;;;4937935;29;20496;-81
2021/12/27 04:10:41;;;;;;;28.58;16.50;;;0.20;99.90;;;;;;4937126;29;20040;-81
2021/12/27 04:13:09;;;;;;;30.65;20.90;;;0.20;99.90;;;;;;4953512;29;20119;-81
2021/12/27 04:15:35;;;;;;;28.83;17.88;;;0.30;99.90;;;;;;4937586;29;20095;-81
2021/12/27 04:18:01;;;;;;;29.05;18.25;;;0.20;99.90;;;;;;4953545;29;20043;-81
2021/12/27 04:20:27;;;;;;;32.40;19.63;;;0.30;99.90;;;;;;4937187;29;20043;-81
2021/12/27 04:22:53;;;;;;;29.98;19.02;;;0.20;99.90;;;;;;4955719;29;20050;-81
2021/12/27 04:25:20;;;;;;;27.88;16.23;;;0.30;99.90;;;;;;4923789;29;20047;-81
2021/12/27 04:27:47;;;;;;;30.80;19.52;;;0.30;99.90;;;;;;4956444;29;20495;-81
2021/12/27 04:30:15;;;;;;;26.67;16.98;;;0.80;99.90;;;;;;4956147;29;20046;-81
2021/12/27 04:32:41;;;;;;;28.30;15.25;;;0.30;99.90;;;;;;4956367;28;20043;-81
2021/12/27 04:35:07;;;;;;;26.60;15.13;;;0.30;99.90;;;;;;4956120;28;20464;-82
2021/12/27 04:37:33;;;;;;;28.25;17.50;;;0.40;99.90;;;;;;4940231;29;20047;-82
2021/12/27 04:40:00;;;;;;;31.67;19.45;;;0.90;99.90;;;;;;4956000;28;20078;-82
2021/12/27 04:42:29;;;;;;;26.05;16.73;;;0.30;99.90;;;;;;4955798;29;20380;-82
2021/12/27 04:44:55;;;;;;;27.17;16.38;;;0.30;99.90;;;;;;4955991;29;20101;-82
2021/12/27 04:47:21;;;;;;;29.58;18.58;;;0.30;99.90;;;;;;4955193;28;20126;-82
2021/12/27 04:49:47;;;;;;;31.00;19.23;;;1.20;99.90;;;;;;4924271;29;20524;-82
2021/12/27 04:52:12;;;;;;;30.27;18.92;;;1.20;99.90;;;;;;4923943;29;20046;-82
2021/12/27 04:54:38;;;;;;;33.70;19.38;;;0.20;99.90;;;;;;4939925;28;20171;-82
2021/12/27 04:57:04;;;;;;;30.13;19.17;;;0.30;99.90;;;;;;4923252;29;20046;-81
2021/12/27 04:59:30;;;;;;;29.77;18.52;;;0.30;99.90;;;;;;4972464;28;20129;-81
2021/12/27 05:01:56;;;;;;;29.15;18.55;;;0.50;99.90;;;;;;4955426;29;20083;-81
2021/12/27 05:04:22;;;;;;;30.65;20.00;;;0.30;99.90;;;;;;4955761;28;20046;-81
2021/12/27 05:06:47;;;;;;;32.00;20.27;;;0.30;99.90;;;;;;4923523;29;20078;-81
2021/12/27 05:09:13;;;;;;;21.58;11.60;;;1.00;99.90;;;;;;4923647;29;20126;-81
2021/12/27 05:11:42;;;;;;;24.20;13.73;;;1.20;99.90;;;;;;4954788;28;20414;-82
2021/12/27 05:14:08;;;;;;;28.83;17.77;;;0.30;99.90;;;;;;4956001;28;20433;-82
2021/12/27 05:16:34;;;;;;;19.65;10.63;;;0.30;99.90;;;;;;4939622;29;20398;-82
2021/12/27 05:18:59;;;;;;;10.98;6.22;;;0.40;99.90;;;;;;4939587;29;20058;-82
2021/12/27 05:21:25;;;;;;;23.55;15.13;;;0.40;99.90;;;;;;4939535;29;20426;-82
2021/12/27 05:23:51;;;;;;;28.20;17.73;;;0.40;99.90;;;;;;4923565;29;20039;-82
2021/12/27 05:26:18;;;;;;;25.75;15.55;;;1.00;99.90;;;;;;4954212;29;20083;-82
2021/12/27 05:28:44;;;;;;;27.40;16.75;;;0.50;99.90;;;;;;4955269;29;20554;-82
2021/12/27 05:31:10;;;;;;;22.85;14.57;;;0.30;99.90;;;;;;4955022;28;20126;-81
2021/12/27 05:33:36;;;;;;;27.30;17.17;;;0.30;99.90;;;;;;4955447;28;20129;-81
2021/12/27 05:36:02;;;;;;;31.00;19.50;;;0.30;99.90;;;;;;4970855;28;20035;-81
2021/12/27 05:38:28;;;;;;;30.40;18.83;;;0.30;99.90;;;;;;4955582;28;20043;-81
2021/12/27 05:40:54;;;;;;;30.75;19.70;;;0.30;99.90;;;;;;4922751;29;20050;-81
2021/12/27 05:43:21;;;;;;;30.80;18.90;;;0.40;99.90;;;;;;4954778;29;20050;-81
2021/12/27 05:45:47;;;;;;;27.63;16.70;;;0.30;99.90;;;;;;4954392;28;20046;-81
2021/12/27 05:48:12;;;;;;;27.10;15.30;;;0.80;99.90;;;;;;4951833;29;20039;-81
2021/12/27 05:50:38;;;;;;;24.83;14.52;;;0.30;99.90;;;;;;4903663;29;20078;-81
2021/12/27 05:53:04;;;;;;;32.15;18.55;;;1.00;99.90;;;;;;4935521;29;20162;-81
2021/12/27 05:55:30;;;;;;;23.88;14.70;;;0.70;99.90;;;;;;4934505;29;20059;-81
2021/12/27 05:57:56;;;;;;;27.63;16.88;;;0.30;99.90;;;;;;4903786;29;20051;-81
2021/12/27 06:00:23;;;;;;;28.15;15.82;;;0.40;99.90;;;;;;4935273;29;20130;-82
2021/12/27 06:02:51;;;;;;;30.90;18.33;;;0.40;99.90;;;;;;4935455;29;20051;-82
2021/12/27 06:05:17;;;;;;;29.00;18.17;;;0.40;99.90;;;;;;4935396;29;20044;-82
2021/12/27 06:07:43;;;;;;;23.83;13.45;;;0.40;99.90;;;;;;4935225;29;20078;-82
2021/12/27 06:10:10;;;;;;;31.10;19.25;;;0.40;99.90;;;;;;4951070;29;20052;-82
2021/12/27 06:12:36;;;;;;;24.42;14.05;;;0.80;99.90;;;;;;4935399;29;20373;-82
2021/12/27 06:15:03;;;;;;;27.88;17.13;;;0.40;99.90;;;;;;4935333;29;20099;-82
2021/12/27 06:17:31;;;;;;;28.90;18.65;;;0.40;99.90;;;;;;4935444;29;20044;-82
2021/12/27 06:19:58;;;;;;;19.25;10.43;;;0.40;99.90;;;;;;4936044;29;20380;-82
2021/12/27 06:22:24;;;;;;;19.05;10.52;;;0.70;99.90;;;;;;4903310;29;20043;-82
2021/12/27 06:24:49;;;;;;;23.92;14.07;;;1.10;99.90;;;;;;4903996;29;20159;-82
2021/12/27 06:27:15;;;;;;;30.27;18.10;;;0.50;99.90;;;;;;4934326;29;20126;-82
2021/12/27 06:29:41;;;;;;;30.45;19.27;;;0.50;99.90;;;;;;4935303;29;20048;-82
2021/12/27 06:32:13;;;;;;;18.30;9.50;;;1.40;99.90;;;;;;4935120;29;20507;-82
2021/12/27 06:34:40;;;;;;;23.70;13.20;;;0.50;99.90;;;;;;4904763;29;20075;-82
2021/12/27 06:37:06;;;;;;;14.90;5.68;;;1.40;99.90;;;;;;4919375;29;20455;-82
2021/12/27 06:39:32;;;;;;;24.88;15.07;;;0.50;99.90;;;;;;4935437;29;20099;-82
2021/12/27 06:41:57;;;;;;;15.55;7.90;;;0.50;99.90;;;;;;4902635;29;20044;-82
2021/12/27 06:44:23;;;;;;;26.42;15.05;;;0.90;99.90;;;;;;4935024;29;20051;-82
2021/12/27 06:46:49;;;;;;;24.10;13.23;;;0.60;99.90;;;;;;4918902;29;20460;-82
2021/12/27 06:49:15;;;;;;;27.13;15.07;;;1.50;99.90;;;;;;4934849;29;20048;-82
2021/12/27 06:51:40;;;;;;;29.45;17.25;;;0.60;99.90;;;;;;4903334;29;20047;-82
2021/12/27 06:54:06;;;;;;;32.22;18.77;;;1.30;99.90;;;;;;4903425;29;20514;-82
2021/12/27 06:56:32;;;;;;;20.98;11.38;;;1.60;99.90;;;;;;4934109;29;20083;-82
2021/12/27 06:58:59;;;;;;;22.92;11.95;;;0.60;99.90;;;;;;4934849;29;20047;-82
2021/12/27 07:01:25;;;;;;;27.83;16.88;;;0.60;99.90;;;;;;4903688;29;20051;-82
2021/12/27 07:03:50;;;;;;;28.08;16.67;;;0.60;99.90;;;;;;4951200;29;20047;-82
2021/12/27 07:06:16;;;;;;;24.15;14.60;;;0.60;99.90;;;;;;4902825;29;20043;-83
2021/12/27 07:08:42;;;;;;;32.58;19.88;;;0.60;99.90;;;;;;4934719;29;20514;-82
2021/12/27 07:11:08;;;;;;;25.40;13.98;;;1.10;99.90;;;;;;4930381;29;20113;-82
2021/12/27 07:13:33;;;;;;;26.20;15.57;;;0.70;99.90;;;;;;4957940;28;20043;-82
2021/12/27 07:15:59;;;;;;;30.55;16.60;;;0.70;99.90;;;;;;4925456;29;20049;-82
2021/12/27 07:18:25;;;;;;;31.90;19.27;;;0.80;99.90;;;;;;4973859;28;20047;-82
2021/12/27 07:20:51;;;;;;;26.48;15.57;;;0.60;99.90;;;;;;4941317;29;20119;-82
2021/12/27 07:23:17;;;;;;;17.60;9.45;;;0.60;99.90;;;;;;4957273;29;20130;-82
2021/12/27 07:25:43;;;;;;;27.60;16.20;;;0.70;99.90;;;;;;4956838;28;20097;-82
2021/12/27 07:28:09;;;;;;;31.65;18.65;;;1.00;99.90;;;;;;4941326;28;20130;-82
2021/12/27 07:30:35;;;;;;;24.05;12.75;;;0.90;99.90;;;;;;4956767;29;20476;-82
2021/12/27 07:33:00;;;;;;;27.23;16.45;;;0.70;99.90;;;;;;4925411;29;20075;-82
2021/12/27 07:35:27;;;;;;;29.88;17.38;;;0.70;99.90;;;;;;4957222;28;20043;-82
2021/12/27 07:37:53;;;;;;;33.50;19.25;;;0.70;99.90;;;;;;4957523;28;20047;-83
2021/12/27 07:40:18;;;;;;;25.90;15.55;;;0.70;99.90;;;;;;4972829;28;20042;-83
2021/12/27 07:42:44;;;;;;;32.03;16.38;;;1.20;99.90;;;;;;4925512;29;20050;-83
2021/12/27 07:45:10;;;;;;;31.02;18.98;;;0.70;99.90;;;;;;4956846;28;20085;-83
2021/12/27 07:47:36;;;;;;;24.83;12.55;;;0.80;99.90;;;;;;4942040;29;20040;-83
2021/12/27 07:50:04;;;;;;;34.35;20.73;;;0.70;99.90;;;;;;4906603;29;20035;-83
2021/12/27 07:52:30;;;;;;;34.35;19.45;;;0.70;99.90;;;;;;4906262;29;20036;-83
2021/12/27 07:54:55;;;;;;;27.67;14.43;;;1.10;99.90;;;;;;4906036;29;20055;-83
2021/12/27 07:57:21;;;;;;;37.47;20.42;;;0.70;99.90;;;;;;4913299;29;20050;-82
2021/12/27 07:59:47;;;;;;;35.70;19.20;;;0.70;99.90;;;;;;4954544;29;20518;-82
2021/12/27 08:02:15;;;;;;;35.03;21.33;;;0.70;99.90;;;;;;4939517;29;20035;-82
2021/12/27 08:04:41;;;;;;;32.22;18.58;;;0.80;99.90;;;;;;4939473;29;20031;-82
2021/12/27 08:07:06;;;;;;;29.13;15.52;;;0.80;99.90;;;;;;4939093;29;20039;-82
2021/12/27 08:09:33;;;;;;;30.17;17.17;;;0.80;99.90;;;;;;4939079;29;20090;-82
2021/12/27 08:11:59;;;;;;;32.33;16.38;;;0.90;99.90;;;;;;4970730;28;20507;-82
2021/12/27 08:14:24;;;;;;;31.98;17.67;;;0.90;99.90;;;;;;4956126;28;20038;-82
2021/12/27 08:16:50;;;;;;;28.40;14.18;;;0.90;99.90;;;;;;4956011;28;20499;-82
2021/12/27 08:19:16;;;;;;;32.55;17.23;;;0.90;99.90;;;;;;4941117;29;20045;-82
2021/12/27 08:21:42;;;;;;;28.25;15.25;;;1.30;99.90;;;;;;4940328;29;20085;-82
2021/12/27 08:24:08;;;;;;;36.78;18.35;;;1.00;99.90;;;;;;4940563;29;20124;-82
2021/12/27 08:26:34;;;;;;;28.88;13.45;;;0.90;99.90;;;;;;4939799;29;20047;-82
2021/12/27 08:29:03;;;;;;;37.50;18.23;;;0.90;99.90;;;;;;4940394;29;20078;-82
2021/12/27 08:31:29;;;;;;;43.45;23.90;;;0.90;99.90;;;;;;4972881;28;20035;-82
2021/12/27 08:33:54;;;;;;;40.95;21.10;;;1.40;99.90;;;;;;4908720;29;20046;-83
2021/12/27 08:36:20;;;;;;;42.90;22.15;;;0.90;99.90;;;;;;4946709;29;20040;-83
2021/12/27 08:38:48;;;;;;;39.92;21.70;;;1.00;99.90;;;;;;4937132;29;20397;-83
2021/12/27 08:41:15;;;;;;;41.55;18.88;;;1.70;99.90;;;;;;4918140;29;20039;-83
2021/12/27 08:43:42;;;;;;;36.85;20.88;;;1.30;99.90;;;;;;4939735;29;20517;-82
2021/12/27 08:46:08;;;;;;;39.05;20.00;;;1.00;99.90;;;;;;4939430;29;20043;-82
2021/12/27 08:48:34;;;;;;;40.80;19.98;;;1.20;99.90;;;;;;4955303;29;20044;-82
2021/12/27 08:51:00;;;;;;;34.40;17.80;;;1.40;99.90;;;;;;4955451;29;20095;-82
2021/12/27 08:53:26;;;;;;;34.47;15.00;;;1.10;99.90;;;;;;4940246;28;20107;-83
2021/12/27 08:55:52;;;;;;;42.72;19.52;;;1.00;99.90;;;;;;4938980;28;20102;-83
2021/12/27 08:58:18;;;;;;;40.83;21.42;;;1.10;99.90;;;;;;4939996;29;20499;-83
2021/12/27 09:00:44;;;;;;;30.30;13.85;;;1.20;99.90;;;;;;4908568;29;20046;-83
2021/12/27 09:03:11;;;;;;;47.97;24.50;;;1.20;99.90;;;;;;4971268;28;20059;-83
2021/12/27 09:05:41;;;;;;;48.03;22.67;;;1.40;99.90;;;;;;4955361;29;20051;-83
2021/12/27 09:08:08;;;;;;;28.45;12.95;;;1.20;99.90;;;;;;4955220;29;20043;-83
2021/12/27 09:10:34;;;;;;;50.30;23.80;;;1.20;99.90;;;;;;4965353;28;20098;-83
2021/12/27 09:13:00;;;;;;;28.00;11.07;;;1.20;99.90;;;;;;4936839;29;20042;-83
2021/12/27 09:15:28;;;;;;;37.60;15.40;;;1.30;99.90;;;;;;4937588;29;20035;-83
2021/12/27 09:17:53;;;;;;;24.27;11.27;;;1.30;99.90;;;;;;4935297;29;20071;-82
2021/12/27 09:20:20;;;;;;;53.85;26.25;;;1.30;99.90;;;;;;4906783;29;20538;-82
2021/12/27 09:22:45;;;;;;;38.70;15.13;;;1.20;99.90;;;;;;4953045;29;20070;-82
2021/12/27 09:25:11;;;;;;;47.35;21.60;;;1.20;99.90;;;;;;4938047;29;20035;-82
2021/12/27 09:27:37;;;;;;;55.25;25.00;;;1.30;99.90;;;;;;4938916;29;20036;-82
2021/12/27 09:30:05;;;;;;;48.30;21.13;;;1.20;99.90;;;;;;4906981;29;20038;-82
2021/12/27 09:32:30;;;;;;;57.90;24.52;;;1.20;99.90;;;;;;4938153;29;20525;-82
2021/12/27 09:34:56;;;;;;;58.58;25.42;;;1.60;99.90;;;;;;4937990;28;20074;-82
2021/12/27 09:37:22;;;;;;;46.75;18.75;;;1.30;99.90;;;;;;4950400;29;20487;-82
2021/12/27 09:39:53;;;;;;;57.33;25.17;;;1.50;99.90;;;;;;4906472;29;20410;-82
2021/12/27 09:42:26;;;;;;;57.58;24.33;;;1.30;99.90;;;;;;4968415;28;20053;-82
2021/12/27 09:44:54;;;;;;;63.13;26.77;;;1.30;99.90;;;;;;4952761;29;20130;-82
2021/12/27 09:47:20;;;;;;;73.60;30.38;;;1.30;99.90;;;;;;4919786;29;20099;-82
2021/12/27 09:49:47;;;;;;;67.88;30.83;;;1.30;99.90;;;;;;4952603;29;20498;-82
2021/12/27 09:52:14;;;;;;;78.75;32.65;;;1.30;99.90;;;;;;4953454;29;20086;-82
2021/12/27 09:54:44;;;;;;;73.72;31.25;;;1.30;99.90;;;;;;4954313;29;20035;-82
2021/12/27 09:57:10;;;;;;;67.70;26.20;;;1.40;99.90;;;;;;4952818;29;20549;-83
2021/12/27 09:59:35;;;;;;;64.90;25.38;;;1.50;99.90;;;;;;4935473;29;20039;-83
2021/12/27 10:02:01;;;;;;;87.43;35.88;;;1.30;99.90;;;;;;4953084;29;20039;-83
2021/12/27 10:04:27;;;;;;;75.47;33.90;;;1.40;99.90;;;;;;4937623;29;20035;-83
2021/12/27 10:06:53;;;;;;;52.03;21.40;;;1.40;99.90;;;;;;4952386;29;20038;-83
2021/12/27 10:09:20;;;;;;;76.40;32.85;;;1.40;99.90;;;;;;4939615;29;20635;-83
2021/12/27 10:11:47;;;;;;;69.45;29.45;;;1.40;99.90;;;;;;4952495;28;20101;-83
2021/12/27 10:14:16;;;;;;;64.43;26.67;;;1.50;99.90;;;;;;4948114;29;20046;-83
2021/12/27 10:16:46;;;;;;;79.00;30.08;;;1.50;99.90;;;;;;4936446;29;20036;-83
2021/12/27 10:19:16;;;;;;;63.47;25.23;;;2.30;99.90;;;;;;4953649;29;20043;-83
2021/12/27 10:21:43;;;;;;;67.28;24.80;;;1.50;99.90;;;;;;4948907;29;20051;-83
2021/12/27 10:24:18;;;;;;;79.38;31.83;;;1.50;99.90;;;;;;4952031;29;20155;-83
2021/12/27 10:26:46;;;;;;;79.13;32.78;;;2.00;99.90;;;;;;4928516;28;20121;-83
2021/12/27 10:29:30;;;;;;;77.97;31.77;;;1.60;99.90;;;;;;4919709;28;20241;-83
2021/12/27 10:31:58;;;;;;;81.38;27.05;;;1.60;99.90;;;;;;4937391;29;20127;-83
2021/12/27 10:34:30;;;;;;;59.75;23.83;;;1.60;99.90;;;;;;4967502;28;20066;-83
2021/12/27 10:37:10;;;;;;;93.30;35.40;;;1.60;99.90;;;;;;4950714;29;20039;-82
2021/12/27 10:39:42;;;;;;;65.20;26.55;;;1.60;99.90;;;;;;4950545;28;20063;-82
2021/12/27 10:42:11;;;;;;;70.57;26.05;;;1.60;99.90;;;;;;4950877;28;20043;-82
2021/12/27 10:44:37;;;;;;;88.63;30.73;;;1.70;99.90;;;;;;4940096;29;20042;-82
2021/12/27 10:47:04;;;;;;;102.30;34.70;;;1.70;99.90;;;;;;4953462;29;20065;-83
2021/12/27 10:49:47;;;;;;;101.32;35.70;;;1.70;99.90;;;;;;4940389;29;20126;-83
2021/12/27 10:52:13;;;;;;;92.80;36.20;;;1.90;99.90;;;;;;4955221;29;20040;-82
2021/12/27 10:54:39;;;;;;;101.80;36.63;;;1.80;99.90;;;;;;4955572;28;20047;-82
2021/12/27 10:57:05;;;;;;;87.88;32.35;;;1.80;99.90;;;;;;4942265;29;20059;-84
2021/12/27 10:59:31;;;;;;;96.53;32.00;;;1.80;99.90;;;;;;4955910;29;20059;-83
2021/12/27 11:02:11;;;;;;;109.93;38.58;;;1.70;99.90;;;;;;4954092;28;20512;-83
2021/12/27 11:04:37;;;;;;;100.30;34.90;;;1.70;99.90;;;;;;4954260;29;20502;-83
2021/12/27 11:07:05;;;;;;;104.25;37.08;;;1.70;99.90;;;;;;4955069;28;20051;-82
2021/12/27 11:09:33;;;;;;;100.13;35.38;;;1.70;99.90;;;;;;4955171;29;20055;-83
2021/12/27 11:11:59;;;;;;;91.20;31.38;;;1.70;99.90;;;;;;4955141;29;20055;-83
2021/12/27 11:14:25;;;;;;;107.78;38.72;;;1.70;99.90;;;;;;4942025;29;20050;-83
2021/12/27 11:16:53;;;;;;;101.78;32.15;;;1.70;99.90;;;;;;4940857;29;20151;-83
2021/12/27 11:19:19;;;;;;;89.18;33.75;;;2.00;99.90;;;;;;4938996;29;20061;-82
2021/12/27 11:21:48;;;;;;;120.43;37.00;;;1.80;99.90;;;;;;4955513;29;20047;-82
2021/12/27 11:24:14;;;;;;;134.65;41.65;;;1.80;99.90;;;;;;4955592;28;20571;-82
2021/12/27 11:26:42;;;;;;;89.03;28.08;;;1.80;99.90;;;;;;4955060;29;20135;-82
2021/12/27 11:29:16;;;;;;;108.30;32.35;;;2.30;99.90;;;;;;4952757;29;20075;-82
2021/12/27 11:31:45;;;;;;;129.48;38.97;;;1.90;99.90;;;;;;4954125;28;20407;-82
2021/12/27 11:34:13;;;;;;;102.72;33.88;;;1.90;99.90;;;;;;4958768;28;20075;-82
2021/12/27 11:36:48;;;;;;;101.72;31.67;;;1.90;99.90;;;;;;4962563;28;20039;-82
2021/12/27 11:39:28;;;;;;;115.55;34.75;;;2.00;99.90;;;;;;4953188;28;20044;-83
2021/12/27 11:41:58;;;;;;;101.18;28.98;;;2.00;99.90;;;;;;4955476;29;20054;-83
2021/12/27 11:44:34;;;;;;;125.40;37.25;;;2.10;99.90;;;;;;4955956;29;20105;-82
2021/12/27 11:47:00;;;;;;;109.72;30.63;;;2.00;99.90;;;;;;4954689;29;20113;-82
2021/12/27 11:49:50;;;;;;;129.32;34.50;;;2.00;99.90;;;;;;4971403;28;20179;-82
2021/12/27 11:52:16;;;;;;;123.15;34.58;;;2.10;99.90;;;;;;4956361;29;20035;-82
2021/12/27 11:54:58;;;;;;;114.13;35.45;;;2.10;99.90;;;;;;4956852;29;20117;-82
2021/12/27 11:57:42;;;;;;;140.55;36.72;;;2.10;99.90;;;;;;4952694;28;20090;-82
2021/12/27 12:00:17;;;;;;;95.20;30.27;;;2.10;99.90;;;;;;4929669;28;20049;-82
2021/12/27 12:02:48;;;;;;;133.00;40.75;;;2.10;99.90;;;;;;4947223;29;20074;-82
2021/12/27 12:05:42;;;;;;;147.52;39.47;;;2.10;99.90;;;;;;4954059;29;20066;-83
2021/12/27 12:08:10;;;;;;;171.93;43.80;;;2.10;99.90;;;;;;4955000;29;20439;-82
2021/12/27 12:10:37;;;;;;;159.30;40.33;;;2.10;99.90;;;;;;4953718;29;20035;-83
2021/12/27 12:13:21;;;;;;;185.35;42.30;;;2.10;99.90;;;;;;4954654;29;20050;-82
2021/12/27 12:16:09;;;;;;;204.77;45.88;;;2.20;99.90;;;;;;4953679;29;20048;-82
2021/12/27 12:18:41;;;;;;;124.97;30.35;;;2.10;99.90;;;;;;4954671;29;20125;-82
2021/12/27 12:21:27;;;;;;;143.10;36.15;;;2.10;99.90;;;;;;4954482;29;20522;-83
2021/12/27 12:24:15;;;;;;;124.18;32.88;;;2.20;99.90;;;;;;4954001;29;20078;-82
2021/12/27 12:27:03;;;;;;;140.30;41.15;;;2.20;99.90;;;;;;4953809;29;20046;-82
2021/12/27 12:29:41;;;;;;;140.23;44.42;;;2.20;99.90;;;;;;4954513;29;20459;-83
2021/12/27 12:32:13;;;;;;;121.15;34.70;;;2.20;99.90;;;;;;4954068;29;20107;-82
2021/12/27 12:34:40;;;;;;;117.78;38.78;;;2.30;99.90;;;;;;4970355;28;20075;-82
2021/12/27 12:37:14;;;;;;;134.48;42.53;;;2.30;99.90;;;;;;4952243;28;20039;-82
2021/12/27 12:39:40;;;;;;;126.13;43.15;;;2.20;99.90;;;;;;4970376;28;20427;-83
2021/12/27 12:42:09;;;;;;;134.60;46.47;;;2.60;99.90;;;;;;4953624;29;20047;-82
2021/12/27 12:44:54;;;;;;;124.72;41.63;;;2.20;99.90;;;;;;4954366;29;20537;-82